Time;durP1;ratioP1;P1;durP2;ratioP2;P2;SDS_P1;SDS_P2;PMS_P1;PMS_P2;Temp;Humidity;BMP_temperature;BMP_pressure;BME280_temperature;BME280_humidity;BME280_pressure;Samples;Min_cycle;Max_cycle;Signal;HPM_P1;HPM_P2
2023/03/05 00:01:38;;;;;;;5.82;1.60;;;;;;;;;;5075579;28;20024;-76
2023/03/05 00:04:04;;;;;;;7.55;1.20;;;;;;;;;;5072114;28;20033;-76
2023/03/05 00:06:31;;;;;;;4.63;1.48;;;;;;;;;;5077938;28;20052;-76
2023/03/05 00:08:57;;;;;;;5.13;1.60;;;;;;;;;;5055959;28;20021;-76
2023/03/05 00:11:24;;;;;;;5.45;1.38;;;;;;;;;;5052119;28;20018;-75
2023/03/05 00:13:53;;;;;;;4.03;1.42;;;;;;;;;;5049351;28;20052;-76
2023/03/05 00:16:20;;;;;;;6.38;1.55;;;;;;;;;;5059528;28;20012;-77
2023/03/05 00:18:46;;;;;;;5.65;1.40;;;;;;;;;;5076231;28;20040;-76
2023/03/05 00:21:21;;;;;;;2.58;1.13;;;;;;;;;;5077131;28;20001;-76
2023/03/05 00:23:46;;;;;;;4.95;1.67;;;;;;;;;;5051334;28;20024;-76
2023/03/05 00:26:11;;;;;;;6.75;2.08;;;;;;;;;;5060570;28;20041;-76
2023/03/05 00:28:37;;;;;;;6.68;1.60;;;;;;;;;;5052331;28;20044;-76
2023/03/05 00:31:02;;;;;;;7.35;1.58;;;;;;;;;;5075247;28;20044;-75
2023/03/05 00:33:28;;;;;;;6.10;1.83;;;;;;;;;;5050573;28;20028;-76
2023/03/05 00:35:53;;;;;;;4.15;1.40;;;;;;;;;;5068150;28;20028;-75
2023/03/05 00:38:19;;;;;;;5.15;1.50;;;;;;;;;;5053068;28;20033;-76
2023/03/05 00:40:44;;;;;;;4.80;1.20;;;;;;;;;;5068105;28;20011;-75
2023/03/05 00:43:10;;;;;;;6.00;1.80;;;;;;;;;;5068208;28;20147;-76
2023/03/05 00:45:36;;;;;;;4.82;1.50;;;;;;;;;;5067469;28;20024;-76
2023/03/05 00:48:02;;;;;;;7.38;1.83;;;;;;;;;;5067741;28;20021;-76
2023/03/05 00:50:27;;;;;;;5.68;1.65;;;;;;;;;;5066993;28;20081;-76
2023/03/05 00:52:52;;;;;;;6.80;1.33;;;;;;;;;;5072488;28;20021;-76
2023/03/05 00:55:18;;;;;;;3.45;1.15;;;;;;;;;;5073829;28;20024;-76
2023/03/05 00:57:44;;;;;;;5.15;1.48;;;;;;;;;;5073288;28;20028;-76
2023/03/05 01:00:10;;;;;;;6.65;1.15;;;;;;;;;;5052753;28;20001;-76
2023/03/05 01:02:35;;;;;;;5.20;1.48;;;;;;;;;;5067126;28;20039;-75
2023/03/05 01:05:01;;;;;;;7.63;1.70;;;;;;;;;;5056381;28;20029;-76
2023/03/05 01:07:26;;;;;;;5.28;1.45;;;;;;;;;;5049811;28;20121;-75
2023/03/05 01:09:51;;;;;;;6.82;1.85;;;;;;;;;;5075026;28;20036;-76
2023/03/05 01:12:17;;;;;;;4.15;1.30;;;;;;;;;;5057713;28;20020;-76
2023/03/05 01:14:42;;;;;;;3.80;1.25;;;;;;;;;;5049802;28;20685;-76
2023/03/05 01:17:08;;;;;;;4.43;1.50;;;;;;;;;;5073675;28;20029;-75
2023/03/05 01:19:33;;;;;;;4.95;1.70;;;;;;;;;;5067235;28;20024;-76
2023/03/05 01:21:59;;;;;;;4.57;1.38;;;;;;;;;;5050023;28;20032;-76
2023/03/05 01:24:24;;;;;;;3.03;1.45;;;;;;;;;;5057523;28;20063;-76
2023/03/05 01:26:50;;;;;;;4.22;1.60;;;;;;;;;;5057179;28;20028;-76
2023/03/05 01:29:15;;;;;;;7.22;1.90;;;;;;;;;;5068766;28;20025;-76
2023/03/05 01:31:40;;;;;;;3.42;1.40;;;;;;;;;;5070064;28;20048;-76
2023/03/05 01:34:06;;;;;;;3.95;1.42;;;;;;;;;;5064458;28;20017;-76
2023/03/05 01:36:31;;;;;;;5.78;1.58;;;;;;;;;;5071250;28;20017;-75
2023/03/05 01:38:57;;;;;;;5.88;1.85;;;;;;;;;;5068752;28;20038;-76
2023/03/05 01:41:22;;;;;;;6.60;1.63;;;;;;;;;;5065973;28;20025;-76
2023/03/05 01:43:48;;;;;;;9.23;1.90;;;;;;;;;;5066180;28;20043;-75
2023/03/05 01:46:15;;;;;;;5.47;1.60;;;;;;;;;;5071488;28;20063;-76
2023/03/05 01:48:44;;;;;;;6.15;1.55;;;;;;;;;;5049510;28;21360;-76
2023/03/05 01:51:10;;;;;;;6.93;2.00;;;;;;;;;;5057443;28;20020;-76
2023/03/05 01:53:36;;;;;;;4.63;1.70;;;;;;;;;;5058261;28;20021;-75
2023/03/05 01:56:02;;;;;;;4.60;1.60;;;;;;;;;;5071447;28;20029;-75
2023/03/05 01:58:27;;;;;;;4.75;1.60;;;;;;;;;;5056062;28;20013;-76
2023/03/05 02:00:54;;;;;;;6.03;1.55;;;;;;;;;;5070048;28;20048;-76
2023/03/05 02:03:22;;;;;;;5.53;1.42;;;;;;;;;;5052186;28;20021;-76
2023/03/05 02:05:47;;;;;;;5.10;1.58;;;;;;;;;;5056709;28;20011;-76
2023/03/05 02:08:16;;;;;;;5.65;1.55;;;;;;;;;;5075606;28;20049;-76
2023/03/05 02:10:45;;;;;;;5.15;1.55;;;;;;;;;;5056086;28;20020;-76
2023/03/05 02:13:13;;;;;;;7.85;1.83;;;;;;;;;;5056621;28;20017;-76
2023/03/05 02:15:39;;;;;;;4.97;1.60;;;;;;;;;;5069395;28;20025;-76
2023/03/05 02:18:06;;;;;;;6.55;2.25;;;;;;;;;;5069375;28;20021;-76
2023/03/05 02:20:52;;;;;;;4.65;1.63;;;;;;;;;;5053443;28;20034;-76
2023/03/05 02:23:19;;;;;;;4.95;1.63;;;;;;;;;;5066935;28;20010;-77
2023/03/05 02:25:45;;;;;;;5.30;1.98;;;;;;;;;;5066134;28;20012;-76
2023/03/05 02:28:18;;;;;;;4.65;1.73;;;;;;;;;;5046562;28;20080;-76
2023/03/05 02:30:44;;;;;;;4.65;1.70;;;;;;;;;;5062689;28;20025;-76
2023/03/05 02:33:09;;;;;;;5.30;1.70;;;;;;;;;;5064907;28;20058;-76
2023/03/05 02:35:35;;;;;;;5.30;1.80;;;;;;;;;;5068279;28;20053;-76
2023/03/05 02:38:00;;;;;;;5.90;1.80;;;;;;;;;;5054580;28;20033;-77
2023/03/05 02:40:26;;;;;;;6.15;1.88;;;;;;;;;;5072977;28;20028;-76
2023/03/05 02:42:52;;;;;;;4.15;1.35;;;;;;;;;;5070522;28;20014;-76
2023/03/05 02:45:18;;;;;;;5.03;1.50;;;;;;;;;;5054990;28;20024;-76
2023/03/05 02:47:43;;;;;;;5.20;1.90;;;;;;;;;;5054847;28;20048;-76
2023/03/05 02:50:10;;;;;;;5.35;1.77;;;;;;;;;;5069449;28;20092;-76
2023/03/05 02:52:36;;;;;;;6.97;2.00;;;;;;;;;;5056418;28;20277;-76
2023/03/05 02:55:01;;;;;;;5.80;2.00;;;;;;;;;;5056556;28;20029;-76
2023/03/05 02:57:27;;;;;;;4.38;1.58;;;;;;;;;;5071370;28;20077;-76
2023/03/05 02:59:52;;;;;;;5.18;1.95;;;;;;;;;;5068054;28;20028;-76
2023/03/05 03:02:17;;;;;;;4.30;1.50;;;;;;;;;;5056384;28;20021;-75
2023/03/05 03:04:44;;;;;;;6.57;1.88;;;;;;;;;;5055713;28;20028;-76
2023/03/05 03:07:10;;;;;;;9.50;1.70;;;;;;;;;;5073914;28;20029;-76
2023/03/05 03:09:36;;;;;;;5.30;1.70;;;;;;;;;;5070786;28;20023;-76
2023/03/05 03:12:02;;;;;;;4.82;1.70;;;;;;;;;;5072569;28;20013;-75
2023/03/05 03:14:31;;;;;;;5.97;1.48;;;;;;;;;;5070453;28;20021;-75
2023/03/05 03:16:58;;;;;;;5.80;1.50;;;;;;;;;;5056613;28;20035;-76
2023/03/05 03:19:23;;;;;;;4.55;1.48;;;;;;;;;;5072721;28;20055;-76
2023/03/05 03:21:49;;;;;;;7.13;1.90;;;;;;;;;;5070564;28;20012;-76
2023/03/05 03:24:15;;;;;;;5.10;1.83;;;;;;;;;;5051540;28;20045;-76
2023/03/05 03:26:40;;;;;;;4.68;1.63;;;;;;;;;;5073244;28;20088;-76
2023/03/05 03:29:05;;;;;;;5.05;1.60;;;;;;;;;;5071796;28;20103;-75
2023/03/05 03:31:31;;;;;;;7.25;1.77;;;;;;;;;;5068584;28;20056;-76
2023/03/05 03:33:56;;;;;;;4.15;1.70;;;;;;;;;;5066146;28;20113;-76
2023/03/05 03:36:22;;;;;;;4.75;1.55;;;;;;;;;;5070760;28;20534;-76
2023/03/05 03:38:47;;;;;;;4.35;1.80;;;;;;;;;;5055463;28;20052;-76
2023/03/05 03:41:12;;;;;;;4.75;1.80;;;;;;;;;;5073891;28;20031;-76
2023/03/05 03:43:38;;;;;;;4.50;1.70;;;;;;;;;;5056038;28;20017;-76
2023/03/05 03:46:05;;;;;;;4.47;1.60;;;;;;;;;;5052593;28;20029;-76
2023/03/05 03:48:31;;;;;;;6.25;1.85;;;;;;;;;;5052566;28;20014;-76
2023/03/05 03:50:56;;;;;;;5.60;1.75;;;;;;;;;;5072002;28;20044;-76
2023/03/05 03:53:21;;;;;;;8.57;1.80;;;;;;;;;;5069771;28;20051;-76
2023/03/05 03:55:47;;;;;;;3.08;1.33;;;;;;;;;;5074042;28;20019;-76
2023/03/05 03:58:12;;;;;;;4.22;1.42;;;;;;;;;;5055058;28;20016;-76
2023/03/05 04:00:39;;;;;;;4.70;1.48;;;;;;;;;;5056619;28;20037;-76
2023/03/05 04:03:05;;;;;;;3.88;1.38;;;;;;;;;;5073499;28;20040;-76
2023/03/05 04:05:30;;;;;;;3.78;1.40;;;;;;;;;;5046609;28;20009;-76
2023/03/05 04:07:57;;;;;;;2.67;1.45;;;;;;;;;;5073126;28;20520;-75
2023/03/05 04:10:24;;;;;;;5.95;1.50;;;;;;;;;;5074749;28;20024;-76
2023/03/05 04:12:50;;;;;;;3.17;1.40;;;;;;;;;;5056141;28;20029;-76
2023/03/05 04:15:15;;;;;;;3.40;1.38;;;;;;;;;;5072636;28;20046;-76
2023/03/05 04:17:40;;;;;;;6.65;1.80;;;;;;;;;;5048141;28;20032;-76
2023/03/05 04:20:09;;;;;;;3.35;1.35;;;;;;;;;;5071514;28;20028;-76
2023/03/05 04:22:35;;;;;;;7.38;1.60;;;;;;;;;;5069306;28;20008;-75
2023/03/05 04:25:05;;;;;;;4.20;1.40;;;;;;;;;;5070752;28;20029;-76
2023/03/05 04:27:33;;;;;;;4.57;1.50;;;;;;;;;;5068828;28;20020;-76
2023/03/05 04:29:59;;;;;;;6.47;1.80;;;;;;;;;;5067553;28;20026;-76
2023/03/05 04:32:25;;;;;;;5.63;2.00;;;;;;;;;;5067667;28;20013;-76
2023/03/05 04:34:50;;;;;;;4.72;1.52;;;;;;;;;;5050585;28;20089;-76
2023/03/05 04:37:16;;;;;;;3.97;1.15;;;;;;;;;;5066754;28;20024;-76
2023/03/05 04:39:41;;;;;;;6.43;1.88;;;;;;;;;;5052291;28;20008;-76
2023/03/05 04:42:07;;;;;;;10.60;1.90;;;;;;;;;;5051858;28;20168;-75
2023/03/05 04:44:32;;;;;;;5.82;1.55;;;;;;;;;;5069272;28;20035;-75
2023/03/05 04:46:57;;;;;;;5.63;1.70;;;;;;;;;;5065374;28;20037;-76
2023/03/05 04:49:23;;;;;;;4.18;1.40;;;;;;;;;;5065859;28;20009;-76
2023/03/05 04:51:48;;;;;;;4.40;1.80;;;;;;;;;;5050819;28;20074;-76
2023/03/05 04:54:14;;;;;;;3.67;1.40;;;;;;;;;;5070299;28;20081;-76
2023/03/05 04:56:39;;;;;;;7.32;2.28;;;;;;;;;;5050222;28;20029;-75
2023/03/05 04:59:04;;;;;;;6.57;1.80;;;;;;;;;;5051218;28;20044;-76
2023/03/05 05:01:31;;;;;;;3.58;1.58;;;;;;;;;;5067842;28;20027;-75
2023/03/05 05:03:57;;;;;;;4.63;1.80;;;;;;;;;;5069006;28;20013;-76
2023/03/05 05:06:22;;;;;;;3.83;1.88;;;;;;;;;;5051097;28;20033;-75
2023/03/05 05:08:48;;;;;;;4.50;1.90;;;;;;;;;;5069393;28;20025;-76
2023/03/05 05:11:14;;;;;;;6.68;1.92;;;;;;;;;;5050685;28;20029;-76
2023/03/05 05:13:39;;;;;;;7.63;2.20;;;;;;;;;;5072433;28;20033;-76
2023/03/05 05:16:06;;;;;;;4.82;1.80;;;;;;;;;;5050174;28;20034;-76
2023/03/05 05:18:31;;;;;;;6.18;2.17;;;;;;;;;;5069506;28;20027;-76
2023/03/05 05:20:57;;;;;;;6.35;2.50;;;;;;;;;;5068279;28;20017;-76
2023/03/05 05:23:23;;;;;;;4.40;2.00;;;;;;;;;;5067646;28;20037;-76
2023/03/05 05:25:57;;;;;;;4.57;2.30;;;;;;;;;;5069630;28;20013;-76
2023/03/05 05:28:22;;;;;;;6.78;3.03;;;;;;;;;;5062155;28;20001;-76
2023/03/05 05:30:48;;;;;;;6.60;2.92;;;;;;;;;;5066222;28;20032;-76
2023/03/05 05:33:13;;;;;;;7.60;3.03;;;;;;;;;;5069577;28;20032;-75
2023/03/05 05:35:39;;;;;;;6.38;3.10;;;;;;;;;;5059725;28;20037;-76
2023/03/05 05:38:04;;;;;;;7.55;3.55;;;;;;;;;;5070649;28;20032;-75
2023/03/05 05:40:29;;;;;;;8.60;3.58;;;;;;;;;;5071083;28;20028;-75
2023/03/05 05:42:55;;;;;;;7.70;3.63;;;;;;;;;;5052248;28;20064;-76
2023/03/05 05:45:20;;;;;;;7.03;3.35;;;;;;;;;;5071324;28;20009;-76
2023/03/05 05:47:46;;;;;;;6.95;3.83;;;;;;;;;;5067216;28;20096;-76
2023/03/05 05:50:11;;;;;;;9.98;3.97;;;;;;;;;;5069968;28;20029;-76
2023/03/05 05:52:36;;;;;;;8.25;3.75;;;;;;;;;;5050134;28;20029;-76
2023/03/05 05:55:02;;;;;;;10.10;4.25;;;;;;;;;;5065794;28;20017;-76
2023/03/05 05:57:27;;;;;;;8.73;4.82;;;;;;;;;;5067689;28;20021;-75
2023/03/05 05:59:53;;;;;;;6.47;3.90;;;;;;;;;;5053417;28;20061;-76
2023/03/05 06:02:18;;;;;;;7.38;3.65;;;;;;;;;;5062198;28;20036;-76
2023/03/05 06:04:44;;;;;;;7.07;4.10;;;;;;;;;;5053045;28;20067;-75
2023/03/05 06:07:09;;;;;;;8.15;4.53;;;;;;;;;;5062693;28;20025;-75
2023/03/05 06:09:35;;;;;;;8.95;4.68;;;;;;;;;;5062766;28;20005;-76
2023/03/05 06:12:00;;;;;;;8.50;4.28;;;;;;;;;;5068878;28;20060;-76
2023/03/05 06:14:26;;;;;;;10.13;4.78;;;;;;;;;;5067413;28;20031;-75
2023/03/05 06:16:51;;;;;;;7.32;4.63;;;;;;;;;;5049548;28;19996;-76
2023/03/05 06:19:16;;;;;;;7.60;4.20;;;;;;;;;;5066255;28;20005;-76
2023/03/05 06:21:43;;;;;;;8.27;4.20;;;;;;;;;;5041555;28;20059;-76
2023/03/05 06:24:09;;;;;;;5.75;3.80;;;;;;;;;;5064345;28;20086;-76
2023/03/05 06:26:35;;;;;;;7.40;3.97;;;;;;;;;;5047379;28;20036;-76
2023/03/05 06:29:00;;;;;;;6.60;3.88;;;;;;;;;;5065506;28;20033;-76
2023/03/05 06:31:28;;;;;;;8.00;3.90;;;;;;;;;;5068702;28;20043;-75
2023/03/05 06:33:56;;;;;;;8.48;4.28;;;;;;;;;;5050911;28;20029;-76
2023/03/05 06:36:23;;;;;;;8.32;4.15;;;;;;;;;;5062617;28;21173;-76
2023/03/05 06:38:49;;;;;;;7.47;4.20;;;;;;;;;;5040960;28;20033;-76
2023/03/05 06:41:18;;;;;;;6.25;3.75;;;;;;;;;;5070895;28;20024;-76
2023/03/05 06:43:45;;;;;;;6.32;3.70;;;;;;;;;;5067367;28;20005;-75
2023/03/05 06:46:13;;;;;;;8.25;3.97;;;;;;;;;;5047638;28;20016;-76
2023/03/05 06:48:39;;;;;;;9.85;4.53;;;;;;;;;;5063311;28;20064;-76
2023/03/05 06:51:11;;;;;;;6.28;4.28;;;;;;;;;;5049266;28;20025;-76
2023/03/05 06:53:37;;;;;;;6.60;4.20;;;;;;;;;;5061746;28;20100;-76
2023/03/05 06:56:02;;;;;;;7.38;3.90;;;;;;;;;;5065748;28;20040;-76
2023/03/05 06:58:27;;;;;;;7.22;4.55;;;;;;;;;;5049810;28;20084;-76
2023/03/05 07:00:53;;;;;;;7.57;4.80;;;;;;;;;;5050080;28;20021;-76
2023/03/05 07:03:18;;;;;;;7.30;4.53;;;;;;;;;;5053425;28;20059;-76
2023/03/05 07:05:43;;;;;;;7.03;4.75;;;;;;;;;;5070429;28;20037;-76
2023/03/05 07:08:09;;;;;;;8.23;4.55;;;;;;;;;;5068795;28;20053;-76
2023/03/05 07:10:42;;;;;;;7.60;4.53;;;;;;;;;;5069137;28;20033;-76
2023/03/05 07:13:08;;;;;;;6.93;4.15;;;;;;;;;;5070510;28;20056;-76
2023/03/05 07:15:37;;;;;;;7.63;4.07;;;;;;;;;;5067253;28;20056;-76
2023/03/05 07:18:02;;;;;;;6.22;3.58;;;;;;;;;;5067064;28;20028;-76
2023/03/05 07:20:28;;;;;;;7.82;3.78;;;;;;;;;;5047349;28;20017;-76
2023/03/05 07:22:54;;;;;;;7.82;3.42;;;;;;;;;;5068828;28;20033;-76
2023/03/05 07:25:20;;;;;;;5.68;2.78;;;;;;;;;;5049076;28;20058;-76
2023/03/05 07:27:47;;;;;;;7.57;3.40;;;;;;;;;;5064419;28;20040;-76
2023/03/05 07:30:13;;;;;;;5.97;3.60;;;;;;;;;;5048614;28;20088;-76
2023/03/05 07:32:39;;;;;;;4.43;2.92;;;;;;;;;;5049302;28;20033;-76
2023/03/05 07:35:05;;;;;;;6.10;3.10;;;;;;;;;;5067732;28;20024;-76
2023/03/05 07:37:30;;;;;;;6.00;3.58;;;;;;;;;;5049898;28;20048;-76
2023/03/05 07:39:56;;;;;;;6.43;3.25;;;;;;;;;;5051127;28;20033;-76
2023/03/05 07:42:21;;;;;;;6.82;3.42;;;;;;;;;;5066194;28;20017;-76
2023/03/05 07:44:47;;;;;;;5.30;3.17;;;;;;;;;;5050824;28;20045;-76
2023/03/05 07:47:13;;;;;;;5.63;3.17;;;;;;;;;;5055956;28;20025;-76
2023/03/05 07:49:40;;;;;;;6.50;3.90;;;;;;;;;;5063433;28;20037;-76
2023/03/05 07:52:06;;;;;;;7.63;3.65;;;;;;;;;;5059881;28;20033;-76
2023/03/05 07:54:36;;;;;;;5.95;3.60;;;;;;;;;;5059337;28;21492;-76
2023/03/05 07:57:06;;;;;;;4.97;2.72;;;;;;;;;;5065824;28;20029;-76
2023/03/05 07:59:31;;;;;;;5.53;3.08;;;;;;;;;;5065045;28;20033;-76
2023/03/05 08:01:57;;;;;;;6.20;3.00;;;;;;;;;;5072527;28;20037;-76
2023/03/05 08:04:23;;;;;;;5.43;2.95;;;;;;;;;;5056335;28;20015;-75
2023/03/05 08:06:49;;;;;;;5.25;2.75;;;;;;;;;;5064460;28;20027;-76
2023/03/05 08:09:15;;;;;;;6.05;2.90;;;;;;;;;;5075535;28;20444;-76
2023/03/05 08:11:41;;;;;;;5.78;3.10;;;;;;;;;;5070530;28;20017;-76
2023/03/05 08:14:07;;;;;;;8.75;3.50;;;;;;;;;;5075233;28;20071;-76
2023/03/05 08:16:33;;;;;;;6.55;3.25;;;;;;;;;;5073035;28;20012;-76
2023/03/05 08:18:58;;;;;;;7.47;3.95;;;;;;;;;;5059824;28;20021;-75
2023/03/05 08:21:29;;;;;;;6.88;4.13;;;;;;;;;;5073937;28;20005;-76
2023/03/05 08:23:56;;;;;;;7.22;4.25;;;;;;;;;;5061809;28;20019;-76
2023/03/05 08:26:24;;;;;;;8.10;4.15;;;;;;;;;;5075306;28;20081;-76
2023/03/05 08:28:50;;;;;;;9.80;4.55;;;;;;;;;;5062572;28;20029;-75
2023/03/05 08:31:17;;;;;;;6.85;4.05;;;;;;;;;;5071851;28;20090;-76
2023/03/05 08:33:42;;;;;;;6.07;3.50;;;;;;;;;;5074800;28;20059;-76
2023/03/05 08:36:09;;;;;;;6.30;3.97;;;;;;;;;;5067558;28;20009;-77
2023/03/05 08:38:34;;;;;;;8.40;3.65;;;;;;;;;;5074206;28;20012;-76
2023/03/05 08:41:00;;;;;;;5.43;3.45;;;;;;;;;;5075874;28;20033;-76
2023/03/05 08:43:25;;;;;;;7.57;3.58;;;;;;;;;;5073406;28;20048;-77
2023/03/05 08:45:52;;;;;;;6.18;3.42;;;;;;;;;;5065675;28;20017;-76
2023/03/05 08:48:18;;;;;;;5.50;2.92;;;;;;;;;;5074947;28;20049;-76
2023/03/05 08:50:44;;;;;;;6.15;3.22;;;;;;;;;;5076507;28;20020;-75
2023/03/05 08:53:09;;;;;;;5.63;3.30;;;;;;;;;;5072339;28;20028;-76
2023/03/05 08:55:36;;;;;;;5.18;2.85;;;;;;;;;;5070584;28;20037;-77
2023/03/05 08:58:01;;;;;;;6.70;3.78;;;;;;;;;;5068734;28;20032;-76
2023/03/05 09:00:27;;;;;;;6.90;3.30;;;;;;;;;;5054009;28;20028;-76
2023/03/05 09:02:52;;;;;;;6.93;3.47;;;;;;;;;;5075395;28;20037;-76
2023/03/05 09:05:18;;;;;;;5.18;2.70;;;;;;;;;;5075219;28;20025;-76
2023/03/05 09:07:44;;;;;;;5.88;2.85;;;;;;;;;;5064065;28;20343;-77
2023/03/05 09:10:12;;;;;;;3.88;2.47;;;;;;;;;;5056920;28;20025;-77
2023/03/05 09:12:37;;;;;;;5.32;2.80;;;;;;;;;;5066447;28;20024;-77
2023/03/05 09:15:07;;;;;;;6.40;3.05;;;;;;;;;;5067353;28;20040;-75
2023/03/05 09:17:33;;;;;;;6.20;2.88;;;;;;;;;;5048859;28;20036;-77
2023/03/05 09:19:59;;;;;;;5.25;2.70;;;;;;;;;;5064479;28;20037;-76
2023/03/05 09:22:24;;;;;;;4.47;2.72;;;;;;;;;;5068145;28;20041;-76
2023/03/05 09:24:50;;;;;;;2.75;1.35;;;;;;;;;;5067064;28;20068;-76
2023/03/05 09:27:15;;;;;;;4.28;1.20;;;;;;;;;;5065814;28;20025;-77
2023/03/05 09:29:40;;;;;;;3.92;1.20;;;;;;;;;;5067878;28;20059;-77
2023/03/05 09:32:06;;;;;;;1.80;0.80;;;;;;;;;;5068310;28;20025;-76
2023/03/05 09:34:33;;;;;;;2.10;1.13;;;;;;;;;;5066236;28;20044;-76
2023/03/05 09:36:58;;;;;;;3.72;1.38;;;;;;;;;;5068703;28;20049;-76
2023/03/05 09:39:24;;;;;;;3.83;1.38;;;;;;;;;;5039883;28;20047;-76
2023/03/05 09:42:15;;;;;;;1.92;1.25;;;;;;;;;;5054812;28;20033;-76
2023/03/05 09:44:50;;;;;;;1.83;1.00;;;;;;;;;;5059952;28;20025;-77
2023/03/05 09:47:21;;;;;;;2.83;1.00;;;;;;;;;;5046112;28;20037;-76
2023/03/05 09:50:09;;;;;;;1.80;1.08;;;;;;;;;;5018833;28;20531;-76
2023/03/05 09:52:40;;;;;;;1.80;0.80;;;;;;;;;;5022670;28;20555;-76
2023/03/05 09:55:35;;;;;;;2.33;0.80;;;;;;;;;;5020539;28;20029;-77
2023/03/05 09:58:17;;;;;;;1.40;0.77;;;;;;;;;;5039284;28;20094;-76
2023/03/05 10:01:10;;;;;;;2.05;0.77;;;;;;;;;;5041523;28;20491;-76
2023/03/05 10:03:35;;;;;;;1.23;0.68;;;;;;;;;;5020146;28;20374;-77
2023/03/05 10:06:26;;;;;;;1.05;0.57;;;;;;;;;;5028684;28;20036;-77
2023/03/05 10:09:05;;;;;;;2.83;0.60;;;;;;;;;;5030385;28;20504;-77
2023/03/05 10:11:53;;;;;;;2.25;0.60;;;;;;;;;;5019181;28;20039;-77
2023/03/05 10:14:30;;;;;;;1.83;0.60;;;;;;;;;;5034837;28;20029;-77
2023/03/05 10:17:06;;;;;;;1.15;0.50;;;;;;;;;;5021269;28;20029;-76
2023/03/05 10:19:55;;;;;;;1.95;0.80;;;;;;;;;;5041021;28;20075;-76
2023/03/05 10:22:45;;;;;;;2.53;0.60;;;;;;;;;;5042091;28;20033;-77
2023/03/05 10:25:17;;;;;;;1.90;0.68;;;;;;;;;;5046868;28;20124;-77
2023/03/05 10:27:50;;;;;;;2.17;0.50;;;;;;;;;;5024037;28;20152;-77
2023/03/05 10:30:56;;;;;;;2.15;0.60;;;;;;;;;;5044173;28;20033;-77
2023/03/05 10:33:42;;;;;;;3.17;0.70;;;;;;;;;;5045262;28;20526;-77
2023/03/05 10:36:23;;;;;;;1.50;0.50;;;;;;;;;;5041848;28;20162;-77
2023/03/05 10:39:17;;;;;;;1.08;0.50;;;;;;;;;;5043218;28;20063;-77
2023/03/05 10:41:52;;;;;;;1.40;0.52;;;;;;;;;;5032542;28;20538;-76
2023/03/05 10:44:42;;;;;;;1.92;0.65;;;;;;;;;;5031279;28;20043;-77
2023/03/05 10:47:21;;;;;;;1.40;0.60;;;;;;;;;;5029641;28;20562;-77
2023/03/05 10:49:52;;;;;;;0.80;0.45;;;;;;;;;;5044941;28;20033;-77
2023/03/05 10:52:22;;;;;;;1.25;0.60;;;;;;;;;;5039624;28;20075;-77
2023/03/05 10:54:48;;;;;;;2.33;1.10;;;;;;;;;;5043567;28;20120;-76
2023/03/05 10:57:26;;;;;;;2.45;1.15;;;;;;;;;;5043197;28;20029;-77
2023/03/05 11:00:05;;;;;;;2.38;1.17;;;;;;;;;;5021477;28;20362;-77
2023/03/05 11:02:32;;;;;;;1.40;0.90;;;;;;;;;;5038888;28;20029;-76
2023/03/05 11:04:58;;;;;;;4.28;1.20;;;;;;;;;;5036543;28;20041;-77
2023/03/05 11:07:23;;;;;;;2.65;0.90;;;;;;;;;;5015910;28;20043;-77
2023/03/05 11:10:15;;;;;;;1.77;0.80;;;;;;;;;;5037004;28;20034;-77
2023/03/05 11:12:41;;;;;;;3.53;0.90;;;;;;;;;;5040479;28;20029;-77
2023/03/05 11:15:09;;;;;;;1.60;0.80;;;;;;;;;;5018331;28;20033;-77
2023/03/05 11:17:42;;;;;;;3.38;0.90;;;;;;;;;;5035897;28;20032;-77
2023/03/05 11:20:32;;;;;;;1.50;0.80;;;;;;;;;;5033664;28;20116;-76
2023/03/05 11:23:02;;;;;;;1.48;0.85;;;;;;;;;;5007952;28;20036;-77
2023/03/05 11:25:28;;;;;;;2.55;1.02;;;;;;;;;;5020832;28;20039;-77
2023/03/05 11:27:56;;;;;;;2.70;0.90;;;;;;;;;;5049011;28;20404;-77
2023/03/05 11:30:32;;;;;;;3.90;1.05;;;;;;;;;;5037930;28;20429;-77
2023/03/05 11:33:19;;;;;;;3.67;1.20;;;;;;;;;;5045919;28;20033;-77
2023/03/05 11:35:45;;;;;;;2.45;1.00;;;;;;;;;;5042859;28;20058;-76
2023/03/05 11:38:26;;;;;;;3.17;1.50;;;;;;;;;;5038220;28;20504;-77
2023/03/05 11:40:54;;;;;;;5.40;2.65;;;;;;;;;;5011978;28;20078;-77
2023/03/05 11:43:23;;;;;;;2.10;1.17;;;;;;;;;;5018786;28;20082;-77
2023/03/05 11:45:52;;;;;;;1.90;1.10;;;;;;;;;;5036935;28;20835;-77
2023/03/05 11:48:24;;;;;;;2.88;1.00;;;;;;;;;;5037240;28;20527;-77
2023/03/05 11:50:57;;;;;;;1.90;1.10;;;;;;;;;;5021050;28;20732;-76
2023/03/05 11:53:28;;;;;;;1.55;0.85;;;;;;;;;;5021444;28;20067;-77
2023/03/05 11:56:19;;;;;;;3.53;1.10;;;;;;;;;;5038526;28;20108;-77
2023/03/05 11:59:06;;;;;;;2.20;1.10;;;;;;;;;;5036737;28;20435;-77
2023/03/05 12:01:39;;;;;;;3.30;1.10;;;;;;;;;;5035486;28;20032;-77
2023/03/05 12:04:07;;;;;;;4.40;1.10;;;;;;;;;;5035748;28;20029;-77
2023/03/05 12:06:44;;;;;;;4.10;1.10;;;;;;;;;;5019615;28;20041;-77
2023/03/05 12:09:18;;;;;;;2.90;1.10;;;;;;;;;;5025601;28;20032;-77
2023/03/05 12:11:46;;;;;;;3.08;1.20;;;;;;;;;;5022086;28;20662;-77
2023/03/05 12:14:18;;;;;;;4.40;1.00;;;;;;;;;;5037040;28;20115;-77
2023/03/05 12:16:48;;;;;;;2.30;0.88;;;;;;;;;;5035534;28;20024;-76
2023/03/05 12:19:16;;;;;;;2.38;1.00;;;;;;;;;;5026477;28;20154;-77
2023/03/05 12:21:43;;;;;;;1.88;0.98;;;;;;;;;;5022041;28;20032;-77
2023/03/05 12:24:35;;;;;;;1.48;0.90;;;;;;;;;;5038506;28;20025;-77
2023/03/05 12:27:03;;;;;;;1.90;0.90;;;;;;;;;;5034625;28;20501;-77
2023/03/05 12:29:39;;;;;;;3.53;1.05;;;;;;;;;;5035119;28;20497;-77
2023/03/05 12:32:24;;;;;;;3.55;0.80;;;;;;;;;;5015820;28;20095;-77
2023/03/05 12:35:15;;;;;;;2.63;0.77;;;;;;;;;;5021303;28;20025;-77
2023/03/05 12:37:43;;;;;;;2.70;0.85;;;;;;;;;;5016043;28;20075;-77
2023/03/05 12:40:21;;;;;;;1.55;0.70;;;;;;;;;;5040320;28;20025;-77
2023/03/05 12:42:51;;;;;;;1.15;0.80;;;;;;;;;;5018505;28;20036;-77
2023/03/05 12:45:18;;;;;;;1.98;0.93;;;;;;;;;;5038892;28;20063;-76
2023/03/05 12:47:44;;;;;;;1.50;0.70;;;;;;;;;;5035767;28;20028;-77
2023/03/05 12:50:28;;;;;;;1.80;0.80;;;;;;;;;;5042949;28;20032;-77
2023/03/05 12:53:05;;;;;;;1.73;0.85;;;;;;;;;;5038594;28;20568;-77
2023/03/05 12:55:49;;;;;;;2.58;0.90;;;;;;;;;;5038219;28;20029;-77
2023/03/05 12:58:43;;;;;;;1.10;0.55;;;;;;;;;;5039818;28;20160;-76
2023/03/05 13:01:28;;;;;;;0.73;0.50;;;;;;;;;;5035327;28;20378;-76
2023/03/05 13:03:58;;;;;;;1.45;0.70;;;;;;;;;;5037311;28;20058;-77
2023/03/05 13:06:34;;;;;;;1.00;0.52;;;;;;;;;;5023040;28;20059;-77
2023/03/05 13:09:02;;;;;;;2.30;0.65;;;;;;;;;;5012863;28;20139;-77
2023/03/05 13:11:33;;;;;;;1.20;0.50;;;;;;;;;;5005840;28;20033;-77
2023/03/05 13:13:59;;;;;;;1.88;0.55;;;;;;;;;;5036997;28;20124;-76
2023/03/05 13:16:27;;;;;;;1.25;0.57;;;;;;;;;;5034783;28;20114;-77
2023/03/05 13:18:55;;;;;;;2.78;0.77;;;;;;;;;;5016656;28;20035;-77
2023/03/05 13:21:26;;;;;;;2.63;1.10;;;;;;;;;;5017794;28;20480;-77
2023/03/05 13:23:59;;;;;;;1.08;0.60;;;;;;;;;;5033096;28;20044;-76
2023/03/05 13:26:27;;;;;;;2.30;0.73;;;;;;;;;;5033167;28;20032;-77
2023/03/05 13:29:11;;;;;;;0.90;0.50;;;;;;;;;;5027198;28;20052;-77
2023/03/05 13:31:59;;;;;;;1.67;0.70;;;;;;;;;;5033850;28;20021;-77
2023/03/05 13:34:30;;;;;;;0.90;0.50;;;;;;;;;;5032332;28;20036;-77
2023/03/05 13:37:14;;;;;;;0.68;0.50;;;;;;;;;;5018122;28;20087;-77
2023/03/05 13:39:47;;;;;;;1.02;0.65;;;;;;;;;;5039029;28;20060;-76
2023/03/05 13:42:25;;;;;;;1.38;0.73;;;;;;;;;;5033560;28;20036;-77
2023/03/05 13:44:59;;;;;;;3.30;0.90;;;;;;;;;;5012442;28;20044;-77
2023/03/05 13:47:27;;;;;;;0.75;0.50;;;;;;;;;;5009559;28;20687;-77
2023/03/05 13:50:24;;;;;;;2.30;0.63;;;;;;;;;;5015439;28;20554;-77
2023/03/05 13:52:49;;;;;;;4.82;1.33;;;;;;;;;;5016012;28;20451;-77
2023/03/05 13:55:16;;;;;;;2.05;1.17;;;;;;;;;;5036075;28;20112;-76
2023/03/05 13:57:49;;;;;;;3.00;1.20;;;;;;;;;;5018594;28;20029;-76
2023/03/05 14:00:26;;;;;;;;;;;;;;;;;;5017224;28;20047;-77
2023/03/05 14:02:57;;;;;;;2.42;1.05;;;;;;;;;;5020590;28;19921;-76
2023/03/05 14:05:23;;;;;;;3.13;1.70;;;;;;;;;;5030693;28;20322;-77
2023/03/05 14:07:50;;;;;;;3.20;1.40;;;;;;;;;;5036055;28;20582;-77
2023/03/05 14:10:26;;;;;;;2.22;1.20;;;;;;;;;;5034796;28;20064;-77
2023/03/05 14:12:52;;;;;;;2.30;1.30;;;;;;;;;;5017061;28;20032;-76
2023/03/05 14:15:24;;;;;;;3.00;1.30;;;;;;;;;;5023276;28;20028;-77
2023/03/05 14:17:50;;;;;;;3.80;1.50;;;;;;;;;;5037292;28;20486;-77
2023/03/05 14:20:26;;;;;;;5.78;1.25;;;;;;;;;;5031568;28;20017;-77
2023/03/05 14:23:30;;;;;;;4.35;2.38;;;;;;;;;;5028494;28;20496;-76
2023/03/05 14:26:26;;;;;;;2.13;1.20;;;;;;;;;;5017420;28;20078;-76
2023/03/05 14:28:54;;;;;;;2.33;1.23;;;;;;;;;;5014668;28;20079;-77
2023/03/05 14:31:21;;;;;;;3.60;1.40;;;;;;;;;;5028556;28;21224;-76
2023/03/05 14:33:48;;;;;;;3.17;1.58;;;;;;;;;;5032872;28;20025;-76
2023/03/05 14:36:19;;;;;;;2.25;1.33;;;;;;;;;;5009896;28;20025;-76
2023/03/05 14:38:45;;;;;;;2.00;1.20;;;;;;;;;;5023249;28;20049;-76
2023/03/05 14:41:31;;;;;;;3.17;1.73;;;;;;;;;;5030776;28;20154;-77
2023/03/05 14:43:57;;;;;;;3.25;1.20;;;;;;;;;;5035895;28;20148;-77
2023/03/05 14:46:23;;;;;;;2.83;1.35;;;;;;;;;;5035186;28;20132;-77
2023/03/05 14:48:48;;;;;;;3.50;1.27;;;;;;;;;;5035958;28;20025;-77
2023/03/05 14:51:13;;;;;;;3.33;1.10;;;;;;;;;;5011654;28;20039;-77
2023/03/05 14:53:43;;;;;;;3.15;1.40;;;;;;;;;;5021983;28;20037;-77
2023/03/05 14:56:24;;;;;;;1.92;1.13;;;;;;;;;;5036270;28;20083;-77